Time;durP1;ratioP1;P1;durP2;ratioP2;P2;SDS_P1;SDS_P2;PMS_P1;PMS_P2;Temp;Humidity;BMP_temperature;BMP_pressure;BME280_temperature;BME280_humidity;BME280_pressure;Samples;Min_cycle;Max_cycle;Signal;HPM_P1;HPM_P2
2023/08/19 00:01:00;;;;;;;0.10;0.00;;;17.80;99.90;;;;;;5053161;28;20667;-83
2023/08/19 00:03:25;;;;;;;0.10;0.10;;;17.80;99.90;;;;;;5035117;28;20459;-83
2023/08/19 00:05:51;;;;;;;0.10;0.00;;;17.80;99.90;;;;;;5048046;28;21036;-83
2023/08/19 00:08:17;;;;;;;0.10;0.10;;;17.80;99.90;;;;;;5050236;28;20175;-84
2023/08/19 00:10:43;;;;;;;0.10;0.10;;;17.80;99.90;;;;;;5052845;28;20441;-83
2023/08/19 00:13:09;;;;;;;0.10;0.10;;;17.90;99.90;;;;;;5034519;28;20191;-83
2023/08/19 00:15:34;;;;;;;0.10;0.10;;;17.90;99.90;;;;;;5050086;28;20793;-83
2023/08/19 00:18:01;;;;;;;0.10;0.00;;;17.80;99.90;;;;;;5052270;28;20197;-83
2023/08/19 00:20:28;;;;;;;0.10;0.10;;;17.80;99.90;;;;;;5051910;28;20245;-83
2023/08/19 00:22:56;;;;;;;0.10;0.07;;;17.80;99.90;;;;;;5053320;28;20948;-83
2023/08/19 00:25:22;;;;;;;0.10;0.10;;;17.80;99.90;;;;;;5033014;28;20538;-83
2023/08/19 00:27:47;;;;;;;0.00;0.00;;;17.80;99.90;;;;;;5052095;28;20464;-83
2023/08/19 00:30:13;;;;;;;0.10;0.00;;;17.80;99.90;;;;;;5049598;28;20472;-84
2023/08/19 00:32:40;;;;;;;0.07;0.00;;;17.80;99.90;;;;;;5052016;28;20187;-83
2023/08/19 00:35:05;;;;;;;0.10;0.00;;;17.80;99.90;;;;;;5053638;28;20183;-83
2023/08/19 00:37:32;;;;;;;0.10;0.10;;;17.70;99.90;;;;;;5050842;28;21196;-83
2023/08/19 00:39:58;;;;;;;0.10;0.10;;;17.80;99.90;;;;;;5053457;28;20174;-83
2023/08/19 00:42:23;;;;;;;0.10;0.00;;;17.80;99.90;;;;;;5049980;28;20476;-83
2023/08/19 00:44:49;;;;;;;0.10;0.10;;;17.80;99.90;;;;;;5052404;28;20186;-84
2023/08/19 00:47:14;;;;;;;0.10;0.00;;;17.70;99.90;;;;;;5050896;28;20553;-83
2023/08/19 00:49:40;;;;;;;0.10;0.00;;;17.70;99.90;;;;;;5050141;28;20202;-83
2023/08/19 00:52:06;;;;;;;0.10;0.00;;;17.70;99.90;;;;;;5051958;28;20195;-83
2023/08/19 00:54:32;;;;;;;0.10;0.10;;;17.70;99.90;;;;;;5051772;28;20441;-83
2023/08/19 00:56:57;;;;;;;0.10;0.00;;;17.70;99.90;;;;;;5052194;28;20194;-83
2023/08/19 00:59:23;;;;;;;0.10;0.10;;;17.70;99.90;;;;;;5051307;28;20928;-84
2023/08/19 01:01:49;;;;;;;0.00;0.00;;;17.70;99.90;;;;;;5048264;28;20237;-83
2023/08/19 01:04:14;;;;;;;0.07;0.00;;;17.70;99.90;;;;;;5049888;28;20194;-83
2023/08/19 01:06:49;;;;;;;0.10;0.10;;;17.70;99.90;;;;;;5031833;28;20950;-83
2023/08/19 01:09:32;;;;;;;0.10;0.10;;;17.70;99.90;;;;;;5027564;28;20201;-83
2023/08/19 01:12:12;;;;;;;0.10;0.00;;;17.80;99.90;;;;;;5050079;28;20806;-83
2023/08/19 01:14:44;;;;;;;0.00;0.00;;;17.70;99.90;;;;;;5050911;28;20449;-83
2023/08/19 01:17:13;;;;;;;0.00;0.00;;;17.70;99.90;;;;;;5050531;28;20508;-84
2023/08/19 01:19:41;;;;;;;0.10;0.10;;;17.70;99.90;;;;;;5052448;28;20920;-83
2023/08/19 01:22:09;;;;;;;0.10;0.10;;;17.70;99.90;;;;;;5048344;28;20484;-83
2023/08/19 01:24:38;;;;;;;0.10;0.00;;;17.80;99.90;;;;;;5046760;28;20534;-83
2023/08/19 01:27:05;;;;;;;0.07;0.00;;;17.70;99.90;;;;;;5032555;28;20484;-83
2023/08/19 01:29:31;;;;;;;0.10;0.10;;;17.80;99.90;;;;;;5050984;28;20460;-83
2023/08/19 01:31:57;;;;;;;0.10;0.10;;;17.70;99.90;;;;;;5051389;28;20785;-83
2023/08/19 01:34:24;;;;;;;0.00;0.00;;;17.70;99.90;;;;;;5049998;28;20182;-83
2023/08/19 01:36:54;;;;;;;0.10;0.00;;;17.80;99.90;;;;;;5051153;28;20437;-83
2023/08/19 01:39:22;;;;;;;0.00;0.00;;;17.70;99.90;;;;;;5050446;28;20455;-83
2023/08/19 01:41:49;;;;;;;0.10;0.00;;;17.70;99.90;;;;;;5051746;28;20473;-83
2023/08/19 01:44:15;;;;;;;0.10;0.00;;;17.70;99.90;;;;;;5048616;28;20803;-84
2023/08/19 01:46:40;;;;;;;0.00;0.00;;;17.70;99.90;;;;;;5049975;28;20464;-83
2023/08/19 01:49:06;;;;;;;0.10;0.00;;;17.80;99.90;;;;;;5033120;28;20794;-83
2023/08/19 01:51:31;;;;;;;0.00;0.00;;;17.80;99.90;;;;;;5032198;28;20274;-83
2023/08/19 01:53:57;;;;;;;0.10;0.10;;;17.70;99.90;;;;;;5049138;28;20190;-83
2023/08/19 01:56:23;;;;;;;0.10;0.00;;;17.70;99.90;;;;;;5047694;28;20191;-83
2023/08/19 01:58:48;;;;;;;0.10;0.00;;;17.70;99.90;;;;;;5049800;28;20191;-83
2023/08/19 02:01:14;;;;;;;0.10;0.00;;;17.70;99.90;;;;;;5046045;28;20207;-83
2023/08/19 02:03:40;;;;;;;0.00;0.00;;;17.80;99.90;;;;;;5048606;28;20210;-83
2023/08/19 02:06:05;;;;;;;0.10;0.00;;;17.80;99.90;;;;;;5049900;28;20225;-83
2023/08/19 02:08:31;;;;;;;0.10;0.10;;;17.80;99.90;;;;;;5051700;28;20186;-84
2023/08/19 02:10:56;;;;;;;0.10;0.10;;;17.70;99.90;;;;;;5051386;28;20190;-83
2023/08/19 02:13:22;;;;;;;0.10;0.00;;;17.70;99.90;;;;;;5048537;28;20194;-83
2023/08/19 02:15:47;;;;;;;0.00;0.00;;;17.80;99.90;;;;;;5050221;28;20183;-84
2023/08/19 02:18:13;;;;;;;0.10;0.00;;;17.70;99.90;;;;;;5048799;28;20572;-83
2023/08/19 02:20:39;;;;;;;0.00;0.00;;;17.80;99.90;;;;;;5047675;28;20708;-83
2023/08/19 02:23:04;;;;;;;0.10;0.10;;;17.80;99.90;;;;;;5049306;28;20711;-83
2023/08/19 02:25:30;;;;;;;0.00;0.00;;;17.80;99.90;;;;;;5050838;28;20797;-84
2023/08/19 02:27:55;;;;;;;0.10;0.00;;;17.80;99.90;;;;;;5049325;28;20190;-83
2023/08/19 02:30:21;;;;;;;0.10;0.10;;;17.80;99.90;;;;;;5048061;28;20947;-83
2023/08/19 02:32:46;;;;;;;0.10;0.10;;;17.80;99.90;;;;;;5050280;28;20198;-83
2023/08/19 02:35:12;;;;;;;0.10;0.10;;;17.80;99.90;;;;;;5049013;28;20665;-83
2023/08/19 02:37:38;;;;;;;0.10;0.10;;;17.80;99.90;;;;;;5051059;28;20541;-83
2023/08/19 02:40:06;;;;;;;0.10;0.00;;;17.80;99.90;;;;;;5050129;28;20186;-83
2023/08/19 02:42:31;;;;;;;0.10;0.10;;;17.80;99.90;;;;;;5045899;28;21338;-83
2023/08/19 02:44:57;;;;;;;0.10;0.10;;;17.80;99.90;;;;;;5050289;28;20441;-83
2023/08/19 02:47:23;;;;;;;0.10;0.10;;;17.80;99.90;;;;;;5046570;28;20241;-83
2023/08/19 02:49:48;;;;;;;0.00;0.00;;;17.80;99.90;;;;;;5049102;28;21018;-84
2023/08/19 02:52:14;;;;;;;0.10;0.00;;;17.80;99.90;;;;;;5046214;28;20647;-83
2023/08/19 02:54:40;;;;;;;0.10;0.00;;;17.80;99.90;;;;;;5047696;28;20187;-84
2023/08/19 02:57:05;;;;;;;0.10;0.00;;;17.80;99.90;;;;;;5048994;28;20208;-84
2023/08/19 02:59:31;;;;;;;0.10;0.10;;;17.80;99.90;;;;;;5047279;28;20178;-84
2023/08/19 03:01:56;;;;;;;0.10;0.10;;;17.80;99.90;;;;;;5049039;28;20222;-84
2023/08/19 03:04:22;;;;;;;0.07;0.00;;;17.80;99.90;;;;;;5048181;28;20174;-84
2023/08/19 03:06:47;;;;;;;0.10;0.00;;;17.80;99.90;;;;;;5048211;28;20190;-85
2023/08/19 03:09:13;;;;;;;0.07;0.00;;;17.80;99.90;;;;;;5046868;28;20530;-84
2023/08/19 03:11:41;;;;;;;0.10;0.00;;;17.80;99.90;;;;;;5047727;28;20179;-83
2023/08/19 03:14:07;;;;;;;0.10;0.00;;;17.80;99.90;;;;;;5030521;28;20186;-84
2023/08/19 03:16:32;;;;;;;0.10;0.07;;;17.80;99.90;;;;;;5049335;28;20554;-84
2023/08/19 03:18:58;;;;;;;0.10;0.10;;;17.80;99.90;;;;;;5048751;28;20203;-84
2023/08/19 03:21:23;;;;;;;0.10;0.10;;;17.80;99.90;;;;;;5047332;28;20198;-83
2023/08/19 03:23:49;;;;;;;0.10;0.10;;;17.80;99.90;;;;;;5047064;28;20676;-84
2023/08/19 03:26:14;;;;;;;0.10;0.00;;;17.80;99.90;;;;;;5051890;28;20650;-83
2023/08/19 03:28:40;;;;;;;0.10;0.10;;;17.80;99.90;;;;;;5057128;28;20191;-84
2023/08/19 03:31:09;;;;;;;0.10;0.07;;;17.80;99.90;;;;;;5054570;28;20261;-84
2023/08/19 03:33:35;;;;;;;0.10;0.10;;;17.80;99.90;;;;;;5040737;28;20726;-83
2023/08/19 03:36:00;;;;;;;0.10;0.10;;;17.80;99.90;;;;;;5070391;28;20534;-84
2023/08/19 03:38:26;;;;;;;0.10;0.00;;;17.80;99.90;;;;;;5059585;28;20186;-83
2023/08/19 03:40:52;;;;;;;0.10;0.00;;;17.80;99.90;;;;;;5062418;28;20197;-83
2023/08/19 03:43:17;;;;;;;0.10;0.00;;;17.80;99.90;;;;;;5055977;28;20197;-83
2023/08/19 03:45:43;;;;;;;0.10;0.00;;;17.80;99.90;;;;;;5050581;28;20186;-84
2023/08/19 03:48:08;;;;;;;0.10;0.00;;;17.80;99.90;;;;;;5056190;28;20190;-84
2023/08/19 03:50:34;;;;;;;0.10;0.10;;;17.80;99.90;;;;;;5053574;28;20183;-84
2023/08/19 03:53:00;;;;;;;0.10;0.00;;;17.80;99.90;;;;;;5047288;28;20282;-83
2023/08/19 03:55:25;;;;;;;0.10;0.10;;;17.80;99.90;;;;;;5033600;28;20219;-84
2023/08/19 03:57:51;;;;;;;0.00;0.00;;;17.80;99.90;;;;;;5033632;28;20773;-84
2023/08/19 04:00:17;;;;;;;0.10;0.00;;;17.80;99.90;;;;;;5040583;28;20179;-84
2023/08/19 04:02:42;;;;;;;0.10;0.00;;;17.80;99.90;;;;;;5049132;28;20222;-84
2023/08/19 04:05:10;;;;;;;0.10;0.00;;;17.80;99.90;;;;;;5051757;28;20279;-83
2023/08/19 04:07:35;;;;;;;0.10;0.00;;;17.80;99.90;;;;;;5050005;28;20678;-83
2023/08/19 04:10:01;;;;;;;0.10;0.00;;;17.80;99.90;;;;;;5065609;28;20458;-83
2023/08/19 04:12:27;;;;;;;0.10;0.00;;;17.80;99.90;;;;;;5061328;28;20197;-84
2023/08/19 04:14:53;;;;;;;0.10;0.10;;;17.80;99.90;;;;;;5059104;28;20187;-83
2023/08/19 04:17:18;;;;;;;0.10;0.00;;;17.80;99.90;;;;;;5048242;28;20183;-85
2023/08/19 04:19:47;;;;;;;0.10;0.00;;;17.80;99.90;;;;;;5071125;28;20957;-83
2023/08/19 04:22:17;;;;;;;0.10;0.00;;;17.80;99.90;;;;;;5070555;28;20213;-84
2023/08/19 04:24:43;;;;;;;0.10;0.00;;;17.90;99.90;;;;;;5065869;28;20467;-84
2023/08/19 04:27:08;;;;;;;0.10;0.00;;;17.80;99.90;;;;;;5047948;28;20967;-83
2023/08/19 04:29:34;;;;;;;0.10;0.00;;;17.90;99.90;;;;;;5053674;28;20561;-83
2023/08/19 04:32:03;;;;;;;0.10;0.10;;;17.90;99.90;;;;;;5042768;28;20182;-83
2023/08/19 04:34:32;;;;;;;0.10;0.00;;;17.90;99.90;;;;;;5051870;28;20196;-83
2023/08/19 04:36:57;;;;;;;0.10;0.10;;;17.90;99.90;;;;;;5065871;28;20498;-83
2023/08/19 04:39:24;;;;;;;0.10;0.00;;;17.90;99.90;;;;;;5046946;28;20466;-83
2023/08/19 04:41:50;;;;;;;0.10;0.00;;;17.90;99.90;;;;;;5055208;28;20474;-85
2023/08/19 04:44:16;;;;;;;0.10;0.00;;;17.90;99.90;;;;;;5054039;28;20550;-84
2023/08/19 04:46:41;;;;;;;0.10;0.00;;;17.90;99.90;;;;;;5061356;28;20190;-83
2023/08/19 04:49:07;;;;;;;0.10;0.00;;;17.90;99.90;;;;;;5051725;28;20198;-84
2023/08/19 04:51:33;;;;;;;0.10;0.07;;;17.90;99.90;;;;;;5057101;28;20221;-83
2023/08/19 04:53:59;;;;;;;0.10;0.00;;;18.00;99.90;;;;;;5050880;28;20465;-83
2023/08/19 04:56:24;;;;;;;0.10;0.00;;;18.00;99.90;;;;;;5059402;28;20560;-83
2023/08/19 04:58:50;;;;;;;0.10;0.10;;;18.00;99.90;;;;;;5054155;28;20194;-83
2023/08/19 05:01:16;;;;;;;0.10;0.00;;;18.00;99.90;;;;;;5046108;28;20210;-83
2023/08/19 05:03:41;;;;;;;0.10;0.10;;;18.10;99.90;;;;;;5048178;28;20276;-84
2023/08/19 05:06:07;;;;;;;0.10;0.00;;;18.10;99.90;;;;;;5054825;28;20526;-84
2023/08/19 05:08:33;;;;;;;0.10;0.00;;;18.20;99.90;;;;;;5041931;28;20540;-83
2023/08/19 05:10:58;;;;;;;0.10;0.00;;;18.20;99.90;;;;;;5054691;28;20273;-84
2023/08/19 05:13:24;;;;;;;0.10;0.10;;;18.10;99.90;;;;;;5058483;28;20220;-84
2023/08/19 05:15:49;;;;;;;0.10;0.10;;;18.20;99.90;;;;;;5053902;28;20192;-85
2023/08/19 05:18:15;;;;;;;0.10;0.00;;;18.10;99.90;;;;;;5068381;28;20685;-85
2023/08/19 05:20:41;;;;;;;0.10;0.00;;;18.20;99.90;;;;;;5065870;28;20186;-84
2023/08/19 05:23:06;;;;;;;0.10;0.00;;;18.20;99.90;;;;;;5071136;28;20217;-85
2023/08/19 05:25:32;;;;;;;0.10;0.00;;;18.20;99.90;;;;;;5060978;28;20187;-84
2023/08/19 05:27:57;;;;;;;0.10;0.00;;;18.30;99.90;;;;;;5057165;28;20218;-84
2023/08/19 05:30:23;;;;;;;0.10;0.00;;;18.30;99.90;;;;;;5043964;28;20252;-84
2023/08/19 05:32:49;;;;;;;0.10;0.10;;;18.40;99.90;;;;;;5050127;28;20194;-84
2023/08/19 05:35:14;;;;;;;0.07;0.00;;;18.40;99.90;;;;;;5053134;28;20270;-84
2023/08/19 05:37:40;;;;;;;0.10;0.00;;;18.40;99.90;;;;;;5051592;28;20209;-83
2023/08/19 05:40:06;;;;;;;0.10;0.00;;;18.40;99.90;;;;;;5066650;28;20693;-83
2023/08/19 05:42:31;;;;;;;0.10;0.00;;;18.50;99.90;;;;;;5069408;28;20236;-83
2023/08/19 05:44:57;;;;;;;0.10;0.00;;;18.50;99.90;;;;;;5033363;28;20441;-84
2023/08/19 05:47:26;;;;;;;0.10;0.00;;;18.50;99.90;;;;;;5052943;28;20785;-84
2023/08/19 05:49:51;;;;;;;0.10;0.00;;;18.60;99.90;;;;;;5041702;28;20237;-84
2023/08/19 05:52:17;;;;;;;0.10;0.00;;;18.60;99.90;;;;;;5054027;28;20498;-84
2023/08/19 05:54:42;;;;;;;0.10;0.00;;;18.70;99.90;;;;;;5050817;28;20194;-85
2023/08/19 05:57:08;;;;;;;0.10;0.00;;;18.70;99.90;;;;;;5056157;28;20217;-84
2023/08/19 05:59:33;;;;;;;0.07;0.00;;;18.80;99.90;;;;;;5060948;28;21153;-84
2023/08/19 06:01:59;;;;;;;0.10;0.00;;;18.80;99.90;;;;;;5047723;28;20233;-84
2023/08/19 06:04:25;;;;;;;0.10;0.00;;;18.90;99.90;;;;;;5049011;28;20296;-84
2023/08/19 06:06:51;;;;;;;0.10;0.00;;;18.90;99.90;;;;;;5046772;28;20194;-84
2023/08/19 06:09:17;;;;;;;0.07;0.00;;;18.90;99.90;;;;;;5056924;28;20436;-84
2023/08/19 06:11:47;;;;;;;0.10;0.00;;;18.90;99.90;;;;;;5053789;28;20447;-84
2023/08/19 06:14:13;;;;;;;0.07;0.00;;;18.90;99.90;;;;;;5065855;28;20191;-84
2023/08/19 06:16:40;;;;;;;0.10;0.00;;;19.00;99.90;;;;;;5052893;28;20520;-84
2023/08/19 06:19:08;;;;;;;0.10;0.00;;;19.10;99.90;;;;;;5051244;28;20192;-84
2023/08/19 06:21:34;;;;;;;0.00;0.00;;;19.20;99.90;;;;;;5044510;28;20473;-84
2023/08/19 06:23:59;;;;;;;0.07;0.00;;;19.30;99.90;;;;;;5046655;28;20811;-84
2023/08/19 06:26:25;;;;;;;0.10;0.10;;;19.30;99.90;;;;;;5049968;28;20269;-84
2023/08/19 06:28:51;;;;;;;0.10;0.00;;;19.40;99.90;;;;;;5043815;28;20720;-84
2023/08/19 06:31:17;;;;;;;0.10;0.00;;;19.40;99.90;;;;;;5029305;28;20469;-87
2023/08/19 06:33:43;;;;;;;0.10;0.00;;;19.50;99.90;;;;;;5045689;28;20515;-87
2023/08/19 06:36:11;;;;;;;0.10;0.00;;;19.50;99.90;;;;;;5043526;28;20195;-87
2023/08/19 06:38:41;;;;;;;0.10;0.10;;;19.60;99.90;;;;;;5046207;28;20595;-86
2023/08/19 06:41:09;;;;;;;0.00;0.00;;;19.70;99.90;;;;;;5044080;28;20449;-86
2023/08/19 06:43:37;;;;;;;0.10;0.00;;;19.70;99.90;;;;;;5045127;28;20516;-87
2023/08/19 06:46:04;;;;;;;0.00;0.00;;;19.70;99.90;;;;;;5047879;28;20944;-86
2023/08/19 06:48:32;;;;;;;0.10;0.00;;;19.70;99.90;;;;;;5055231;28;20477;-87
2023/08/19 06:50:58;;;;;;;0.10;0.10;;;19.80;99.90;;;;;;5040193;28;20445;-87
2023/08/19 06:53:24;;;;;;;0.10;0.00;;;20.10;99.90;;;;;;5061108;28;20551;-86
2023/08/19 06:56:23;;;;;;;0.10;0.00;;;20.20;99.90;;;;;;5050184;28;21024;-85
2023/08/19 06:58:54;;;;;;;0.10;0.00;;;20.20;99.90;;;;;;5041793;28;20480;-84
2023/08/19 07:01:26;;;;;;;0.10;0.00;;;20.40;99.90;;;;;;5048664;28;20500;-84
2023/08/19 07:03:52;;;;;;;0.10;0.00;;;20.50;99.90;;;;;;5045872;28;20986;-84
2023/08/19 07:06:20;;;;;;;0.10;0.00;;;20.60;99.90;;;;;;5049731;28;20437;-84
2023/08/19 07:08:46;;;;;;;0.10;0.00;;;20.70;99.90;;;;;;5049775;28;20489;-84
2023/08/19 07:11:12;;;;;;;0.10;0.00;;;20.80;99.90;;;;;;5052310;28;20479;-84
2023/08/19 07:13:38;;;;;;;0.10;0.00;;;20.90;99.90;;;;;;5046787;28;20449;-84
2023/08/19 07:16:05;;;;;;;0.10;0.10;;;21.00;99.90;;;;;;5045034;28;20182;-84
2023/08/19 07:18:37;;;;;;;0.00;0.00;;;21.10;99.90;;;;;;5053386;28;20595;-86
2023/08/19 07:21:04;;;;;;;0.00;0.00;;;21.30;99.90;;;;;;5064842;28;20440;-85
2023/08/19 07:23:30;;;;;;;0.00;0.00;;;21.30;99.90;;;;;;5053069;28;20448;-84
2023/08/19 07:25:57;;;;;;;0.00;0.00;;;21.20;99.90;;;;;;5065995;28;20432;-84
2023/08/19 07:28:24;;;;;;;0.10;0.00;;;21.30;99.90;;;;;;5047576;28;20544;-84
2023/08/19 07:30:51;;;;;;;0.00;0.00;;;21.30;99.90;;;;;;5056043;28;20586;-83
2023/08/19 07:33:17;;;;;;;0.00;0.00;;;21.50;99.90;;;;;;5049559;28;20524;-84
2023/08/19 07:35:44;;;;;;;0.00;0.00;;;21.60;99.90;;;;;;5047922;28;20452;-84
2023/08/19 07:38:10;;;;;;;0.00;0.00;;;21.60;99.90;;;;;;5047246;28;21025;-85
2023/08/19 07:40:35;;;;;;;0.00;0.00;;;21.70;99.90;;;;;;5044319;28;20468;-85
2023/08/19 07:43:01;;;;;;;0.10;0.00;;;21.80;99.90;;;;;;5060358;28;20857;-85
2023/08/19 07:45:26;;;;;;;0.10;0.10;;;21.90;99.90;;;;;;5047604;28;20197;-85
2023/08/19 07:47:52;;;;;;;0.10;0.00;;;22.00;99.90;;;;;;5050090;28;20277;-83
2023/08/19 07:50:17;;;;;;;0.10;0.10;;;22.20;99.90;;;;;;5043966;28;20183;-85
2023/08/19 07:52:43;;;;;;;0.10;0.00;;;22.20;99.90;;;;;;5046544;28;20191;-84
2023/08/19 07:55:10;;;;;;;0.10;0.00;;;22.30;99.90;;;;;;5029099;28;20182;-82
2023/08/19 07:57:35;;;;;;;0.10;0.00;;;22.60;99.90;;;;;;5053278;28;20214;-84
2023/08/19 08:00:02;;;;;;;0.10;0.00;;;22.80;99.90;;;;;;5056960;28;20469;-86
2023/08/19 08:02:27;;;;;;;0.00;0.00;;;22.80;99.90;;;;;;5045701;28;20230;-83
2023/08/19 08:04:53;;;;;;;0.00;0.00;;;23.00;99.90;;;;;;5044951;28;20443;-83
2023/08/19 08:31:04;;;;;;;0.10;0.00;;;24.00;99.90;;;;;;5125899;27;20580;-85
2023/08/19 08:33:30;;;;;;;0.10;0.00;;;24.10;99.90;;;;;;5108002;28;20956;-86
2023/08/19 08:35:55;;;;;;;0.10;0.00;;;24.30;99.90;;;;;;5122430;27;20270;-85
2023/08/19 08:38:21;;;;;;;0.07;0.00;;;24.50;99.90;;;;;;5121971;28;20187;-86
2023/08/19 08:40:47;;;;;;;0.10;0.00;;;24.60;99.90;;;;;;5119749;27;20211;-84
2023/08/19 08:43:13;;;;;;;0.10;0.00;;;24.50;99.90;;;;;;5104985;28;20279;-85
2023/08/19 08:45:40;;;;;;;0.00;0.00;;;24.70;99.90;;;;;;5127035;28;20187;-85
2023/08/19 08:48:07;;;;;;;0.10;0.00;;;24.70;99.90;;;;;;5125243;28;20445;-85
2023/08/19 08:50:33;;;;;;;0.10;0.00;;;24.50;99.90;;;;;;5125526;27;20502;-84
2023/08/19 08:52:59;;;;;;;0.00;0.00;;;24.40;99.90;;;;;;5125114;27;20449;-84
2023/08/19 08:55:25;;;;;;;0.10;0.00;;;24.50;99.90;;;;;;5127958;27;20438;-84
2023/08/19 08:57:50;;;;;;;0.10;0.00;;;24.50;99.90;;;;;;5115031;28;20183;-85
2023/08/19 09:00:16;;;;;;;0.00;0.00;;;24.30;99.90;;;;;;5123218;28;20445;-84
2023/08/19 09:02:43;;;;;;;0.10;0.00;;;24.40;99.90;;;;;;5122078;27;20657;-84
2023/08/19 09:05:10;;;;;;;0.10;0.00;;;24.50;99.90;;;;;;5125691;28;20203;-83
2023/08/19 09:07:39;;;;;;;0.10;0.00;;;24.60;99.90;;;;;;5105908;28;20479;-84
2023/08/19 09:10:13;;;;;;;0.10;0.00;;;24.50;99.90;;;;;;5108924;28;20473;-84
2023/08/19 09:12:42;;;;;;;0.10;0.00;;;24.40;99.90;;;;;;5114755;28;20433;-84
2023/08/19 09:15:09;;;;;;;0.10;0.00;;;24.40;99.90;;;;;;5108348;28;20441;-83
2023/08/19 09:17:36;;;;;;;0.10;0.00;;;24.50;99.90;;;;;;5123303;27;20431;-83
2023/08/19 09:20:03;;;;;;;0.10;0.00;;;24.50;99.90;;;;;;5102685;27;20446;-84
2023/08/19 09:22:29;;;;;;;0.10;0.00;;;24.50;99.90;;;;;;5120031;27;20456;-84
2023/08/19 09:24:56;;;;;;;0.10;0.00;;;24.70;99.90;;;;;;5122992;27;20437;-86
2023/08/19 09:27:31;;;;;;;0.10;0.00;;;24.90;99.90;;;;;;5107221;28;20180;-84
2023/08/19 09:29:57;;;;;;;0.10;0.00;;;25.00;99.90;;;;;;5114443;27;20599;-84
2023/08/19 09:32:30;;;;;;;0.10;0.00;;;25.20;99.90;;;;;;5121750;27;20436;-84
2023/08/19 09:35:05;;;;;;;0.10;0.00;;;25.50;99.90;;;;;;5105878;28;20500;-84
2023/08/19 09:37:32;;;;;;;0.10;0.00;;;26.00;99.90;;;;;;5120339;27;20449;-84
2023/08/19 09:39:58;;;;;;;0.00;0.00;;;26.30;99.90;;;;;;5122912;27;20530;-83
2023/08/19 09:42:24;;;;;;;0.10;0.00;;;26.80;99.90;;;;;;5108087;27;20442;-84
2023/08/19 09:44:51;;;;;;;0.10;0.00;;;27.10;99.90;;;;;;5110420;27;20489;-83
2023/08/19 09:47:17;;;;;;;0.00;0.00;;;27.10;99.90;;;;;;5106008;27;20208;-86
2023/08/19 09:49:43;;;;;;;0.00;0.00;;;27.40;99.90;;;;;;5111831;27;20991;-83
2023/08/19 09:52:19;;;;;;;0.10;0.00;;;27.60;99.90;;;;;;5111253;28;20231;-87
2023/08/19 09:54:50;;;;;;;0.10;0.00;;;27.60;99.90;;;;;;5093723;28;20180;-85
2023/08/19 09:57:16;;;;;;;0.00;0.00;;;27.20;99.90;;;;;;5103728;28;20446;-85
2023/08/19 09:59:43;;;;;;;0.10;0.00;;;27.50;99.90;;;;;;5109671;27;20450;-85
2023/08/19 10:02:11;;;;;;;0.07;0.00;;;27.50;99.90;;;;;;5109549;28;20264;-88
2023/08/19 10:04:37;;;;;;;0.00;0.00;;;27.50;99.90;;;;;;5105867;28;20489;-89
2023/08/19 10:07:04;;;;;;;0.10;0.00;;;27.70;99.90;;;;;;5110886;28;20430;-85
2023/08/19 10:09:32;;;;;;;0.00;0.00;;;27.70;99.90;;;;;;5109894;28;20501;-86
2023/08/19 10:11:59;;;;;;;0.00;0.00;;;28.10;99.90;;;;;;5113337;28;20426;-84
2023/08/19 10:14:32;;;;;;;0.07;0.00;;;27.70;99.90;;;;;;5116553;27;20958;-84
2023/08/19 10:17:05;;;;;;;0.07;0.00;;;28.10;99.90;;;;;;5088130;28;20442;-85
2023/08/19 10:19:39;;;;;;;0.10;0.00;;;28.50;99.90;;;;;;5113966;27;20438;-85
2023/08/19 10:22:07;;;;;;;0.00;0.00;;;28.90;99.90;;;;;;5087809;28;20426;-87
2023/08/19 10:24:34;;;;;;;0.00;0.00;;;29.20;99.90;;;;;;5110137;27;20933;-83
2023/08/19 10:26:59;;;;;;;0.00;0.00;;;29.70;99.90;;;;;;5109559;28;20457;-86
2023/08/19 10:29:25;;;;;;;0.10;0.00;;;29.20;99.90;;;;;;5113372;27;20484;-85
2023/08/19 10:31:50;;;;;;;0.10;0.00;;;29.30;99.90;;;;;;5090760;27;20180;-87
2023/08/19 10:34:19;;;;;;;0.10;0.00;;;29.30;99.90;;;;;;5118922;27;20192;-86
2023/08/19 10:37:07;;;;;;;0.10;0.00;;;29.20;99.90;;;;;;5118145;27;20302;-86
2023/08/19 10:39:33;;;;;;;0.10;0.00;;;29.30;99.90;;;;;;5114136;27;20430;-88
2023/08/19 10:41:59;;;;;;;0.10;0.00;;;29.60;99.90;;;;;;5112616;27;20955;-88
2023/08/19 10:44:31;;;;;;;0.10;0.00;;;29.80;99.90;;;;;;5086133;28;20449;-87
2023/08/19 10:47:18;;;;;;;0.07;0.00;;;29.60;99.90;;;;;;5103536;27;20187;-87
2023/08/19 10:49:47;;;;;;;0.10;0.00;;;29.90;99.90;;;;;;5106544;27;20474;-87
2023/08/19 10:52:22;;;;;;;0.10;0.00;;;30.40;99.90;;;;;;5104568;27;21226;-88
2023/08/19 10:54:48;;;;;;;0.10;0.00;;;31.00;99.90;;;;;;5106776;27;20967;-83
2023/08/19 10:57:24;;;;;;;0.10;0.00;;;31.30;99.90;;;;;;5105082;27;20474;-83
2023/08/19 11:00:07;;;;;;;0.10;0.00;;;31.30;99.90;;;;;;5103816;27;20188;-85
2023/08/19 11:02:33;;;;;;;0.10;0.00;;;31.40;99.90;;;;;;5103693;27;20473;-85
2023/08/19 11:05:01;;;;;;;0.10;0.00;;;31.20;99.90;;;;;;5086587;28;20477;-84
2023/08/19 11:07:26;;;;;;;0.00;0.00;;;31.40;99.90;;;;;;5102592;28;20203;-84
2023/08/19 11:09:56;;;;;;;0.00;0.00;;;31.10;99.90;;;;;;5102952;28;20989;-85
2023/08/19 11:12:22;;;;;;;0.00;0.00;;;31.30;99.90;;;;;;5086842;28;20180;-87
2023/08/19 11:14:50;;;;;;;0.00;0.00;;;31.60;99.90;;;;;;5104233;27;20462;-83
2023/08/19 11:17:17;;;;;;;0.00;0.00;;;31.90;99.90;;;;;;5096537;27;20915;-84
2023/08/19 11:19:43;;;;;;;0.00;0.00;;;32.00;99.90;;;;;;5105947;28;20446;-86
2023/08/19 11:22:15;;;;;;;0.00;0.00;;;31.50;99.90;;;;;;5099992;28;21083;-84
2023/08/19 11:24:41;;;;;;;0.00;0.00;;;31.50;99.90;;;;;;5105239;27;20449;-87
2023/08/19 11:27:07;;;;;;;0.10;0.00;;;31.30;99.90;;;;;;5089901;28;20442;-85
2023/08/19 11:29:36;;;;;;;0.07;0.00;;;30.70;99.90;;;;;;5090128;28;21268;-88
2023/08/19 11:32:02;;;;;;;0.10;0.00;;;30.30;99.90;;;;;;5094101;28;20452;-85
2023/08/19 11:34:29;;;;;;;0.00;0.00;;;30.30;99.90;;;;;;5106386;28;20446;-87
2023/08/19 11:36:54;;;;;;;0.00;0.00;;;30.00;99.90;;;;;;5106694;28;20201;-86
2023/08/19 11:39:20;;;;;;;0.00;0.00;;;29.90;99.90;;;;;;5089442;28;20454;-88
2023/08/19 11:41:47;;;;;;;0.00;0.00;;;29.80;99.90;;;;;;5112068;27;20188;-88
2023/08/19 11:44:13;;;;;;;0.00;0.00;;;29.90;99.90;;;;;;5105001;28;20195;-87
2023/08/19 11:46:39;;;;;;;0.00;0.00;;;30.00;99.90;;;;;;5100168;28;20441;-84
2023/08/19 11:49:09;;;;;;;0.00;0.00;;;30.00;99.90;;;;;;5110419;27;20703;-85
2023/08/19 11:51:39;;;;;;;0.00;0.00;;;30.30;99.90;;;;;;5104277;28;20200;-84
2023/08/19 11:54:09;;;;;;;0.00;0.00;;;30.20;99.90;;;;;;5120094;27;20448;-85
2023/08/19 11:57:08;;;;;;;0.00;0.00;;;29.60;99.90;;;;;;5108882;28;20423;-84
2023/08/19 11:59:34;;;;;;;0.00;0.00;;;29.30;99.90;;;;;;5060740;28;20533;-85
2023/08/19 12:02:05;;;;;;;0.10;0.00;;;29.20;99.90;;;;;;5108207;27;20465;-86
2023/08/19 12:04:33;;;;;;;0.10;0.00;;;28.80;99.90;;;;;;5103346;28;20525;-86
2023/08/19 12:07:03;;;;;;;0.10;0.00;;;28.70;99.90;;;;;;5083614;28;20478;-85
2023/08/19 12:09:35;;;;;;;0.10;0.00;;;28.30;99.90;;;;;;5103092;28;20466;-85
2023/08/19 12:12:09;;;;;;;0.10;0.00;;;28.30;99.90;;;;;;5105585;28;20450;-86
2023/08/19 12:14:37;;;;;;;0.10;0.00;;;28.00;99.90;;;;;;5089662;28;21097;-86
2023/08/19 12:17:04;;;;;;;0.10;0.00;;;27.80;99.90;;;;;;5101644;28;20457;-85
2023/08/19 12:19:30;;;;;;;0.10;0.00;;;27.60;99.90;;;;;;5104745;28;20452;-83
2023/08/19 12:21:56;;;;;;;0.10;0.00;;;27.50;99.90;;;;;;5100106;28;20473;-86
2023/08/19 12:24:21;;;;;;;0.10;0.00;;;27.60;99.90;;;;;;5105631;28;20181;-91
2023/08/19 12:26:47;;;;;;;0.10;0.00;;;27.40;99.90;;;;;;5097767;28;20191;-86
2023/08/19 12:29:12;;;;;;;0.10;0.00;;;27.40;99.90;;;;;;5085837;28;20273;-86
2023/08/19 12:31:38;;;;;;;0.10;0.00;;;27.40;99.90;;;;;;5098430;28;20195;-86
2023/08/19 12:34:04;;;;;;;0.10;0.00;;;27.40;99.90;;;;;;5102266;28;20196;-86
2023/08/19 12:36:29;;;;;;;0.10;0.00;;;27.40;99.90;;;;;;5106696;28;20191;-88
2023/08/19 12:38:55;;;;;;;0.10;0.00;;;27.30;99.90;;;;;;5105985;28;20449;-86
2023/08/19 12:41:21;;;;;;;0.10;0.00;;;27.10;99.90;;;;;;5104626;28;20658;-87
2023/08/19 12:43:47;;;;;;;0.10;0.00;;;26.90;99.90;;;;;;5106989;28;20329;-86
2023/08/19 12:46:13;;;;;;;0.10;0.00;;;26.90;99.90;;;;;;5105618;28;21067;-87
2023/08/19 12:48:39;;;;;;;0.10;0.00;;;26.80;99.90;;;;;;5111831;28;20190;-87
2023/08/19 12:51:04;;;;;;;0.10;0.00;;;26.70;99.90;;;;;;5109504;28;20516;-86
2023/08/19 12:53:30;;;;;;;0.10;0.00;;;26.80;99.90;;;;;;5111112;28;20873;-86
2023/08/19 12:55:55;;;;;;;0.10;0.00;;;26.80;99.90;;;;;;5104879;28;20199;-86
2023/08/19 12:58:21;;;;;;;0.10;0.00;;;26.90;99.90;;;;;;5084731;28;20187;-86
2023/08/19 13:00:46;;;;;;;0.10;0.00;;;26.80;99.90;;;;;;5104144;28;20184;-87
2023/08/19 13:03:12;;;;;;;0.10;0.00;;;26.80;99.90;;;;;;5105834;28;20192;-87
2023/08/19 13:05:37;;;;;;;0.10;0.00;;;26.80;99.90;;;;;;5099104;28;20203;-87
2023/08/19 13:08:04;;;;;;;0.10;0.00;;;27.00;99.90;;;;;;5106077;28;20196;-87
2023/08/19 13:10:29;;;;;;;0.10;0.00;;;27.00;99.90;;;;;;5088933;28;20216;-85